createdAt,value
2022-08-08T00:00:52.967Z,18.26
2022-08-08T00:06:02.736Z,18.28
2022-08-08T00:11:47.133Z,18.25
2022-08-08T00:17:22.929Z,18.19
2022-08-08T00:22:48.684Z,18.10
2022-08-08T00:28:34.244Z,17.96
2022-08-08T00:34:26.957Z,17.99
2022-08-08T00:41:10.211Z,17.86
2022-08-08T00:46:01.211Z,17.66
2022-08-08T00:51:51.736Z,17.52
2022-08-08T00:57:35.864Z,17.45
2022-08-08T01:04:01.223Z,17.22
2022-08-08T01:09:36.845Z,17.04
2022-08-08T01:14:57.265Z,16.96
2022-08-08T01:20:35.675Z,16.92
2022-08-08T01:26:13.235Z,16.89
2022-08-08T01:32:15.584Z,16.98
2022-08-08T01:37:57.376Z,17.00
2022-08-08T01:43:53.471Z,16.91
2022-08-08T01:49:37.524Z,16.86
2022-08-08T01:56:27.640Z,16.67
2022-08-08T02:01:59.582Z,16.60
2022-08-08T02:07:41.671Z,16.50
2022-08-08T02:13:53.029Z,16.58
2022-08-08T02:19:10.105Z,16.59
2022-08-08T02:24:54.761Z,16.51
2022-08-08T02:30:25.559Z,16.43
2022-08-08T02:36:23.743Z,16.56
2022-08-08T02:42:03.637Z,16.41
2022-08-08T02:47:55.813Z,16.39
2022-08-08T02:53:27.932Z,16.28
2022-08-08T02:59:17.312Z,16.18
2022-08-08T03:05:21.886Z,16.25
2022-08-08T03:11:47.526Z,16.31
2022-08-08T03:17:20.243Z,16.39
2022-08-08T03:22:57.110Z,16.36
2022-08-08T03:28:41.200Z,16.28
2022-08-08T03:34:02.475Z,16.10
2022-08-08T03:39:26.008Z,15.96
2022-08-08T03:44:52.298Z,15.76
2022-08-08T03:50:20.135Z,15.69
2022-08-08T03:55:57.327Z,15.79
2022-08-08T04:01:25.865Z,15.90
2022-08-08T04:07:01.385Z,15.95
2022-08-08T04:12:27.379Z,15.95
2022-08-08T04:17:59.145Z,15.96
2022-08-08T04:23:21.932Z,15.93
2022-08-08T04:28:44.803Z,16.17
2022-08-08T04:34:07.411Z,16.54
2022-08-08T04:40:04.226Z,16.68
2022-08-08T04:45:10.700Z,16.82
2022-08-08T04:50:38.387Z,17.10
2022-08-08T04:56:04.218Z,17.18
2022-08-08T05:01:35.539Z,17.42
2022-08-08T05:07:09.418Z,17.74
2022-08-08T05:12:31.845Z,18.23
2022-08-08T05:17:57.977Z,18.47
2022-08-08T05:23:20.590Z,18.75
2022-08-08T05:28:57.468Z,19.19
2022-08-08T05:34:50.009Z,19.39
2022-08-08T05:40:16.942Z,19.33
2022-08-08T05:45:42.773Z,19.33
2022-08-08T05:51:15.608Z,19.40
2022-08-08T05:56:47.408Z,19.39
2022-08-08T06:02:41.024Z,19.69
2022-08-08T06:09:59.105Z,20.01
2022-08-08T06:15:07.569Z,20.34
2022-08-08T06:20:36.224Z,20.54
2022-08-08T06:26:38.651Z,20.87
2022-08-08T06:31:52.402Z,21.24
2022-08-08T06:37:37.301Z,21.37
2022-08-08T06:43:06.108Z,21.45
2022-08-08T06:48:51.150Z,21.74
2022-08-08T06:54:13.303Z,22.10
2022-08-08T07:00:01.735Z,22.05
2022-08-08T07:05:24.861Z,22.38
2022-08-08T07:10:55.013Z,22.61
2022-08-08T07:16:29.074Z,22.73
2022-08-08T07:22:04.952Z,22.56
2022-08-08T07:27:47.324Z,22.65
2022-08-08T07:33:22.993Z,22.59
2022-08-08T07:38:52.840Z,22.62
2022-08-08T07:44:36.936Z,22.50
2022-08-08T07:49:57.490Z,22.48
2022-08-08T07:55:29.282Z,22.39
2022-08-08T08:01:04.513Z,22.24
2022-08-08T08:06:27.365Z,22.29
2022-08-08T08:11:51.883Z,22.14
2022-08-08T08:17:22.906Z,22.12
2022-08-08T08:22:44.848Z,22.07
2022-08-08T08:28:09.638Z,22.27
2022-08-08T08:33:32.615Z,22.42
2022-08-08T08:38:57.143Z,22.36
2022-08-08T08:44:29.053Z,22.36
2022-08-08T08:49:53.057Z,22.41
2022-08-08T08:55:16.177Z,22.46
2022-08-08T09:01:03.150Z,22.58
2022-08-08T09:06:37.958Z,22.46
2022-08-08T09:12:09.718Z,22.52
2022-08-08T09:17:41.952Z,22.29
2022-08-08T09:23:17.838Z,22.32
2022-08-08T09:28:47.264Z,22.39
2022-08-08T09:34:32.834Z,22.61
2022-08-08T09:40:03.235Z,22.64
2022-08-08T09:46:03.112Z,22.67
2022-08-08T09:51:30.409Z,22.37
2022-08-08T09:57:16.082Z,22.05
2022-08-08T10:02:40.563Z,22.12
2022-08-08T10:08:02.600Z,22.37
2022-08-08T10:13:32.507Z,22.65
2022-08-08T10:19:04.633Z,22.87
2022-08-08T10:24:29.592Z,22.70
2022-08-08T10:30:01.035Z,22.58
2022-08-08T10:36:08.998Z,22.55
2022-08-08T10:41:20.090Z,22.52
2022-08-08T10:46:41.794Z,22.66
2022-08-08T10:52:07.230Z,22.76
2022-08-08T10:57:45.314Z,22.60
2022-08-08T11:03:16.509Z,22.33
2022-08-08T11:08:41.974Z,22.42
2022-08-08T11:14:06.439Z,22.52
2022-08-08T11:19:29.877Z,22.67
2022-08-08T11:24:54.916Z,22.55
2022-08-08T11:30:19.895Z,22.72
2022-08-08T11:35:44.032Z,22.60
2022-08-08T11:41:05.149Z,22.61
2022-08-08T11:46:30.470Z,22.45
2022-08-08T11:51:54.508Z,22.52
2022-08-08T11:57:18.492Z,22.41
2022-08-08T12:02:51.231Z,22.35
2022-08-08T12:08:16.543Z,22.36
2022-08-08T12:14:02.675Z,22.45
2022-08-08T12:19:21.873Z,22.55
2022-08-08T12:24:56.319Z,22.61
2022-08-08T12:30:21.712Z,22.53
2022-08-08T12:35:53.049Z,22.58
2022-08-08T12:41:33.412Z,22.58
2022-08-08T12:47:00.248Z,22.67
2022-08-08T12:52:28.558Z,22.70
2022-08-08T12:57:56.553Z,22.63
2022-08-08T13:03:34.190Z,22.77
2022-08-08T13:08:56.388Z,22.80
2022-08-08T13:14:17.623Z,22.91
2022-08-08T13:19:49.936Z,22.96
2022-08-08T13:25:22.266Z,22.95
2022-08-08T13:30:43.720Z,22.96
2022-08-08T13:36:07.723Z,22.84
2022-08-08T13:41:38.916Z,22.90
2022-08-08T13:47:07.116Z,22.95
2022-08-08T13:52:37.899Z,22.91
2022-08-08T13:58:08.049Z,23.04
2022-08-08T14:03:52.219Z,22.97
2022-08-08T14:09:25.303Z,22.94
2022-08-08T14:14:51.648Z,22.95
2022-08-08T14:20:16.742Z,23.04
2022-08-08T14:26:00.663Z,23.04
2022-08-08T14:32:05.988Z,23.06
2022-08-08T14:37:16.702Z,23.06
2022-08-08T14:42:55.228Z,23.10
2022-08-08T14:48:27.493Z,23.20
2022-08-08T14:53:59.126Z,23.20
2022-08-08T14:59:22.536Z,23.14
2022-08-08T15:05:08.135Z,23.02
2022-08-08T15:10:32.429Z,23.03
2022-08-08T15:16:02.112Z,23.00
2022-08-08T15:21:30.023Z,22.93
2022-08-08T15:26:52.607Z,22.87
2022-08-08T15:32:20.732Z,22.82
2022-08-08T15:37:43.759Z,22.86
2022-08-08T15:43:35.027Z,22.79
2022-08-08T15:48:45.698Z,22.79
2022-08-08T15:54:06.922Z,22.81
2022-08-08T16:00:06.473Z,22.84
2022-08-08T16:05:23.597Z,22.86
2022-08-08T16:13:03.377Z,22.82
2022-08-08T16:16:25.640Z,22.84
2022-08-08T16:21:48.938Z,22.90
2022-08-08T16:27:18.121Z,22.82
2022-08-08T16:32:39.427Z,22.79
2022-08-08T16:38:01.976Z,22.76
2022-08-08T16:43:24.235Z,22.67
2022-08-08T16:48:44.822Z,22.69
2022-08-08T16:55:22.583Z,22.77
2022-08-08T16:59:52.439Z,22.83
2022-08-08T17:05:14.137Z,22.89
2022-08-08T17:10:34.746Z,22.86
2022-08-08T17:15:57.015Z,22.82
2022-08-08T17:21:18.665Z,22.78
2022-08-08T17:26:42.200Z,22.76
2022-08-08T17:32:05.879Z,22.77
2022-08-08T17:37:28.429Z,22.69
2022-08-08T17:42:53.408Z,22.65
2022-08-08T17:48:29.428Z,22.55
2022-08-08T17:53:57.776Z,22.35
2022-08-08T17:59:20.831Z,22.13
2022-08-08T18:04:50.501Z,22.08
2022-08-08T18:10:14.033Z,21.98
2022-08-08T18:15:34.877Z,21.89
2022-08-08T18:20:59.624Z,21.84
2022-08-08T18:26:20.465Z,21.72
2022-08-08T18:31:41.123Z,21.55
2022-08-08T18:37:08.074Z,21.48
2022-08-08T18:42:29.221Z,21.44
2022-08-08T18:47:49.907Z,21.37
2022-08-08T18:53:10.987Z,21.25
2022-08-08T18:58:33.329Z,21.18
2022-08-08T19:04:05.350Z,21.12
2022-08-08T19:09:49.617Z,21.06
2022-08-08T19:15:13.705Z,21.01
2022-08-08T19:20:37.403Z,20.96
2022-08-08T19:26:20.274Z,20.88
2022-08-08T19:31:40.847Z,20.81
2022-08-08T19:37:07.797Z,20.73
2022-08-08T19:42:36.950Z,20.62
2022-08-08T19:47:59.656Z,20.47
2022-08-08T19:53:37.946Z,20.36
2022-08-08T19:59:00.729Z,20.30
2022-08-08T20:04:22.357Z,20.25
2022-08-08T20:09:55.270Z,20.09
2022-08-08T20:15:17.436Z,20.05
2022-08-08T20:20:38.320Z,20.01
2022-08-08T20:26:02.357Z,19.75
2022-08-08T20:31:22.993Z,19.59
2022-08-08T20:36:44.660Z,19.54
2022-08-08T20:42:06.917Z,19.47
2022-08-08T20:47:36.672Z,19.54
2022-08-08T20:53:00.976Z,19.59
2022-08-08T20:58:23.274Z,19.63
2022-08-08T21:03:55.607Z,19.61
2022-08-08T21:09:22.045Z,19.53
2022-08-08T21:14:43.594Z,19.45
2022-08-08T21:20:10.426Z,19.46
2022-08-08T21:25:36.238Z,19.29
2022-08-08T21:30:57.237Z,19.30
2022-08-08T21:36:21.820Z,19.37
2022-08-08T21:41:53.736Z,19.30
2022-08-08T21:48:05.524Z,19.29
2022-08-08T21:54:31.089Z,19.36
2022-08-08T21:58:43.137Z,19.38
2022-08-08T22:04:15.444Z,19.42
2022-08-08T22:09:41.129Z,19.40
2022-08-08T22:15:07.280Z,19.38
2022-08-08T22:20:28.421Z,19.31
2022-08-08T22:26:28.244Z,19.34
2022-08-08T22:31:30.307Z,19.31
2022-08-08T22:36:56.063Z,19.27
2022-08-08T22:42:27.164Z,19.23
2022-08-08T22:47:49.458Z,19.13
2022-08-08T22:54:30.991Z,19.05
2022-08-08T22:58:54.164Z,18.98
2022-08-08T23:04:18.401Z,18.84
2022-08-08T23:09:55.231Z,18.71
2022-08-08T23:16:39.331Z,18.79
2022-08-08T23:21:05.291Z,18.70
2022-08-08T23:26:28.788Z,18.69
2022-08-08T23:31:49.787Z,18.63
2022-08-08T23:37:11.584Z,18.56
2022-08-08T23:42:33.070Z,18.26
2022-08-08T23:49:04.617Z,18.29
2022-08-08T23:54:05.418Z,18.20
2022-08-08T23:59:19.737Z,18.23
